createdAt,value
2023-03-05T00:02:42.907Z,29.00
2023-03-05T00:05:45.139Z,32.13
2023-03-05T00:08:48.388Z,31.48
2023-03-05T00:11:50.696Z,32.78
2023-03-05T00:14:52.903Z,29.30
2023-03-05T00:17:55.024Z,28.70
2023-03-05T00:20:57.187Z,26.05
2023-03-05T00:24:03.343Z,26.50
2023-03-05T00:27:05.757Z,24.98
2023-03-05T00:30:08.915Z,28.80
2023-03-05T00:33:12.780Z,32.60
2023-03-05T00:36:14.974Z,30.10
2023-03-05T00:39:17.969Z,29.13
2023-03-05T00:42:20.242Z,30.20
2023-03-05T00:45:22.490Z,31.73
2023-03-05T00:48:25.823Z,27.13
2023-03-05T00:51:28.034Z,27.35
2023-03-05T00:54:30.391Z,28.17
2023-03-05T00:57:32.604Z,26.13
2023-03-05T01:00:35.370Z,27.33
2023-03-05T01:03:37.824Z,28.45
2023-03-05T01:06:44.788Z,32.47
2023-03-05T01:09:49.437Z,24.05
2023-03-05T01:12:51.646Z,29.08
2023-03-05T01:15:53.948Z,27.02
2023-03-05T01:18:56.199Z,32.95
2023-03-05T01:21:59.041Z,31.63
2023-03-05T01:25:01.688Z,32.15
2023-03-05T01:28:04.073Z,32.50
2023-03-05T01:31:08.887Z,28.33
2023-03-05T01:34:11.159Z,30.63
2023-03-05T01:37:13.378Z,34.35
2023-03-05T01:40:20.197Z,29.15
2023-03-05T01:43:27.035Z,30.45
2023-03-05T01:46:31.008Z,28.25
2023-03-05T01:49:38.430Z,32.72
2023-03-05T01:52:43.816Z,30.75
2023-03-05T01:55:46.235Z,34.20
2023-03-05T01:58:49.225Z,29.80
2023-03-05T02:01:54.768Z,30.13
2023-03-05T02:05:03.979Z,33.20
2023-03-05T02:08:09.006Z,36.37
2023-03-05T02:11:11.373Z,35.83
2023-03-05T02:14:13.569Z,31.15
2023-03-05T02:17:16.358Z,31.45
2023-03-05T02:20:28.318Z,30.33
2023-03-05T02:23:34.041Z,27.25
2023-03-05T02:26:36.354Z,35.10
2023-03-05T02:29:42.397Z,33.40
2023-03-05T02:32:44.677Z,31.20
2023-03-05T02:35:47.269Z,36.75
2023-03-05T02:38:50.123Z,32.83
2023-03-05T02:41:52.259Z,29.63
2023-03-05T02:44:54.430Z,35.08
2023-03-05T02:47:56.672Z,34.10
2023-03-05T02:50:59.896Z,32.60
2023-03-05T02:54:02.342Z,35.45
2023-03-05T02:57:05.467Z,30.73
2023-03-05T03:00:08.613Z,27.80
2023-03-05T03:03:10.834Z,31.17
2023-03-05T03:06:13.118Z,29.92
2023-03-05T03:09:15.343Z,28.65
2023-03-05T03:12:17.494Z,25.88
2023-03-05T03:15:19.741Z,31.17
2023-03-05T03:18:21.944Z,28.42
2023-03-05T03:21:26.996Z,28.17
2023-03-05T03:24:31.192Z,33.67
2023-03-05T03:27:33.518Z,30.80
2023-03-05T03:30:35.733Z,39.50
2023-03-05T03:33:38.210Z,29.23
2023-03-05T03:36:40.702Z,34.75
2023-03-05T03:39:42.916Z,29.40
2023-03-05T03:42:45.092Z,37.42
2023-03-05T03:45:47.310Z,32.92
2023-03-05T03:48:52.492Z,35.22
2023-03-05T03:51:54.932Z,31.27
2023-03-05T03:55:01.808Z,37.40
2023-03-05T03:58:04.312Z,27.25
2023-03-05T04:01:06.575Z,29.80
2023-03-05T04:04:10.526Z,33.70
2023-03-05T04:07:13.129Z,30.08
2023-03-05T04:10:15.544Z,34.33
2023-03-05T04:13:17.744Z,30.10
2023-03-05T04:16:20.075Z,32.20
2023-03-05T04:19:22.457Z,32.90
2023-03-05T04:22:25.008Z,33.05
2023-03-05T04:25:27.195Z,35.05
2023-03-05T04:28:29.425Z,30.15
2023-03-05T04:31:31.717Z,30.77
2023-03-05T04:34:34.134Z,28.30
2023-03-05T04:37:36.364Z,27.92
2023-03-05T04:40:38.876Z,31.65
2023-03-05T04:43:41.108Z,35.47
2023-03-05T04:46:43.862Z,29.70
2023-03-05T04:49:46.368Z,29.52
2023-03-05T04:52:48.958Z,32.58
2023-03-05T04:55:55.797Z,31.17
2023-03-05T04:58:58.963Z,30.70
2023-03-05T05:02:01.220Z,27.10
2023-03-05T05:05:03.628Z,32.78
2023-03-05T05:08:05.811Z,32.58
2023-03-05T05:11:08.696Z,29.50
2023-03-05T05:14:10.780Z,33.97
2023-03-05T05:17:13.006Z,33.55
2023-03-05T05:20:17.040Z,29.63
2023-03-05T05:23:19.368Z,31.42
2023-03-05T05:26:21.749Z,31.38
2023-03-05T05:29:24.381Z,34.90
2023-03-05T05:32:26.544Z,33.25
2023-03-05T05:35:28.981Z,32.20
2023-03-05T05:38:31.230Z,30.50
2023-03-05T05:41:33.454Z,33.15
2023-03-05T05:44:35.680Z,32.08
2023-03-05T05:47:37.941Z,32.92
2023-03-05T05:50:41.256Z,36.03
2023-03-05T05:53:43.808Z,37.03
2023-03-05T05:56:45.909Z,34.05
2023-03-05T05:59:48.171Z,32.72
2023-03-05T06:02:50.462Z,32.40
2023-03-05T06:05:52.662Z,34.28
2023-03-05T06:08:55.710Z,34.67
2023-03-05T06:11:57.786Z,31.65
2023-03-05T06:15:00.073Z,33.25
2023-03-05T06:18:02.321Z,33.28
2023-03-05T06:21:08.471Z,29.40
2023-03-05T06:24:11.616Z,32.25
2023-03-05T06:27:13.773Z,34.60
2023-03-05T06:30:16.170Z,35.97
2023-03-05T06:33:18.322Z,31.83
2023-03-05T06:36:22.391Z,29.77
2023-03-05T06:39:24.475Z,32.80
2023-03-05T06:42:26.621Z,30.95
2023-03-05T06:45:28.753Z,30.65
2023-03-05T06:48:31.073Z,32.13
2023-03-05T06:51:36.181Z,33.03
2023-03-05T06:54:38.502Z,32.13
2023-03-05T06:57:40.678Z,32.40
2023-03-05T07:00:44.676Z,33.00
2023-03-05T07:03:50.988Z,33.63
2023-03-05T07:06:53.546Z,33.78
2023-03-05T07:09:55.785Z,29.55
2023-03-05T07:12:58.965Z,32.33
2023-03-05T07:16:06.380Z,31.23
2023-03-05T07:19:11.007Z,34.10
2023-03-05T07:22:13.206Z,31.95
2023-03-05T07:25:20.970Z,32.80
2023-03-05T07:28:23.386Z,33.30
2023-03-05T07:31:31.067Z,28.50
2023-03-05T07:34:33.216Z,29.60
2023-03-05T07:37:35.524Z,40.03
2023-03-05T07:40:38.201Z,30.15
2023-03-05T07:43:40.908Z,34.80
2023-03-05T07:46:43.131Z,33.50
2023-03-05T07:49:45.416Z,36.13
2023-03-05T07:52:47.576Z,34.20
2023-03-05T07:55:49.667Z,35.10
2023-03-05T07:58:52.482Z,32.20
2023-03-05T08:01:54.763Z,31.52
2023-03-05T08:04:57.018Z,29.63
2023-03-05T08:07:59.608Z,37.72
2023-03-05T08:11:10.825Z,32.92
2023-03-05T08:14:12.944Z,38.88
2023-03-05T08:17:15.072Z,34.10
2023-03-05T08:20:17.310Z,31.13
2023-03-05T08:23:19.529Z,35.45
2023-03-05T08:26:24.215Z,34.00
2023-03-05T08:29:27.036Z,31.20
2023-03-05T08:32:29.330Z,31.95
2023-03-05T08:35:31.684Z,35.25
2023-03-05T08:38:33.884Z,37.75
2023-03-05T08:41:36.545Z,34.70
2023-03-05T08:44:38.654Z,32.72
2023-03-05T08:47:40.832Z,33.60
2023-03-05T08:50:43.093Z,30.90
2023-03-05T08:53:46.738Z,34.08
2023-03-05T08:56:50.163Z,35.08
2023-03-05T08:59:52.379Z,37.83
2023-03-05T09:02:54.611Z,34.85
2023-03-05T09:06:01.487Z,38.70
2023-03-05T09:09:03.777Z,38.03
2023-03-05T09:12:06.175Z,32.80
2023-03-05T09:15:10.731Z,33.97
2023-03-05T09:18:12.852Z,36.25
2023-03-05T09:21:17.757Z,37.80
2023-03-05T09:24:19.884Z,35.72
2023-03-05T09:27:22.104Z,30.52
2023-03-05T09:30:24.318Z,37.13
2023-03-05T09:33:26.539Z,38.60
2023-03-05T09:36:30.896Z,37.45
2023-03-05T09:39:33.288Z,35.58
2023-03-05T09:42:56.354Z,38.67
2023-03-05T09:46:24.471Z,35.10
2023-03-05T09:49:47.368Z,35.85
2023-03-05T09:53:01.785Z,36.33
2023-03-05T09:56:12.090Z,31.38
2023-03-05T10:02:34.202Z,31.05
2023-03-05T10:06:00.756Z,37.05
2023-03-05T10:09:11.874Z,36.13
2023-03-05T10:12:20.918Z,37.80
2023-03-05T10:15:52.229Z,33.33
2023-03-05T10:19:09.432Z,33.58
2023-03-05T10:22:19.436Z,35.75
2023-03-05T10:25:30.540Z,39.03
2023-03-05T10:28:57.874Z,35.88
2023-03-05T10:32:12.101Z,30.42
2023-03-05T10:35:41.050Z,35.42
2023-03-05T10:39:14.645Z,33.05
2023-03-05T10:42:34.365Z,34.33
2023-03-05T10:45:45.880Z,35.78
2023-03-05T10:48:58.826Z,32.30
2023-03-05T10:52:01.038Z,31.00
2023-03-05T10:55:16.903Z,34.38
2023-03-05T10:58:19.018Z,38.08
2023-03-05T11:01:23.649Z,28.27
2023-03-05T11:04:28.651Z,37.65
2023-03-05T11:07:33.815Z,37.97
2023-03-05T11:10:36.259Z,39.67
2023-03-05T11:13:58.807Z,35.13
2023-03-05T11:17:03.402Z,33.88
2023-03-05T11:20:29.172Z,36.35
2023-03-05T11:23:31.496Z,31.75
2023-03-05T11:26:35.116Z,32.38
2023-03-05T11:29:48.606Z,34.65
2023-03-05T11:32:50.946Z,34.13
2023-03-05T11:36:09.414Z,36.45
2023-03-05T11:39:17.009Z,38.28
2023-03-05T11:42:25.202Z,36.65
2023-03-05T11:45:29.773Z,37.17
2023-03-05T11:48:40.205Z,32.72
2023-03-05T11:52:00.731Z,27.77
2023-03-05T11:55:17.220Z,37.10
2023-03-05T11:58:41.327Z,36.50
2023-03-05T12:01:55.483Z,34.78
2023-03-05T12:04:59.568Z,39.13
2023-03-05T12:08:03.244Z,35.83
2023-03-05T12:11:19.354Z,37.13
2023-03-05T12:14:51.081Z,34.13
2023-03-05T12:18:07.575Z,32.22
2023-03-05T12:21:39.981Z,35.20
2023-03-05T12:24:42.282Z,28.83
2023-03-05T12:27:44.744Z,34.55
2023-03-05T12:30:46.976Z,33.70
2023-03-05T12:33:49.220Z,29.83
2023-03-05T12:36:51.596Z,32.53
2023-03-05T12:40:12.930Z,37.03
2023-03-05T12:43:32.906Z,34.45
2023-03-05T12:46:42.937Z,35.35
2023-03-05T12:49:46.710Z,36.30
2023-03-05T12:52:48.866Z,37.47
2023-03-05T12:56:00.208Z,32.45
2023-03-05T12:59:04.332Z,37.22
2023-03-05T13:02:21.148Z,32.75
2023-03-05T13:05:47.533Z,34.17
2023-03-05T13:09:03.765Z,32.38
2023-03-05T13:12:13.189Z,32.13
2023-03-05T13:15:16.376Z,37.17
2023-03-05T13:18:25.149Z,28.95
2023-03-05T13:21:29.885Z,28.23
2023-03-05T13:24:32.230Z,29.20
2023-03-05T13:27:34.427Z,36.15
2023-03-05T13:30:36.898Z,36.03
2023-03-05T13:33:39.053Z,38.70
2023-03-05T13:37:03.826Z,37.72
2023-03-05T13:40:21.021Z,29.48
2023-03-05T13:43:23.198Z,28.50
2023-03-05T13:46:29.691Z,32.42
2023-03-05T13:49:32.804Z,33.33
2023-03-05T13:52:39.143Z,34.38
2023-03-05T13:55:41.731Z,33.45
2023-03-05T13:58:55.258Z,33.67
2023-03-05T14:02:00.042Z,35.50
2023-03-05T14:05:02.536Z,38.92
2023-03-05T14:08:05.080Z,39.78
2023-03-05T14:11:15.674Z,32.97
2023-03-05T14:14:19.153Z,35.97
2023-03-05T14:17:30.279Z,39.17
2023-03-05T14:20:32.496Z,32.05
2023-03-05T14:23:49.430Z,32.03
2023-03-05T14:26:57.383Z,30.50
2023-03-05T14:29:59.893Z,26.70
2023-03-05T14:33:03.107Z,27.42
2023-03-05T14:36:05.931Z,33.58
2023-03-05T14:39:20.594Z,36.70
2023-03-05T14:42:38.762Z,41.75
2023-03-05T14:45:43.783Z,53.13
2023-03-05T14:48:46.146Z,39.70
2023-03-05T14:51:48.696Z,46.53
2023-03-05T14:54:52.032Z,42.55
2023-03-05T14:58:02.045Z,41.00
2023-03-05T15:01:04.362Z,37.55
2023-03-05T15:04:06.491Z,34.22
2023-03-05T15:07:17.644Z,40.78
2023-03-05T15:10:22.381Z,38.25
2023-03-05T15:13:24.602Z,42.55
2023-03-05T15:16:26.820Z,36.70
2023-03-05T15:19:28.976Z,41.75
2023-03-05T15:22:31.083Z,37.80
2023-03-05T15:25:33.331Z,40.03
2023-03-05T15:28:39.484Z,37.67
2023-03-05T15:31:41.691Z,36.47
2023-03-05T15:34:43.941Z,38.50
2023-03-05T15:37:46.131Z,40.35
2023-03-05T15:40:48.874Z,41.53
2023-03-05T15:43:51.869Z,40.40
2023-03-05T15:46:54.287Z,41.97
2023-03-05T15:49:56.525Z,48.25
2023-03-05T15:52:59.020Z,42.20
2023-03-05T15:56:01.195Z,39.85
2023-03-05T15:59:03.493Z,53.22
2023-03-05T16:02:06.032Z,47.33
2023-03-05T16:05:09.037Z,46.08
2023-03-05T16:08:11.464Z,48.20
2023-03-05T16:11:14.021Z,46.97
2023-03-05T16:14:21.547Z,41.38
2023-03-05T16:17:24.427Z,47.72
2023-03-05T16:20:29.604Z,42.70
2023-03-05T16:23:31.695Z,43.17
2023-03-05T16:26:36.458Z,39.83
2023-03-05T16:29:38.671Z,42.17
2023-03-05T16:32:41.005Z,45.55
2023-03-05T16:35:43.242Z,40.38
2023-03-05T16:38:45.384Z,44.15
2023-03-05T16:41:47.710Z,42.05
2023-03-05T16:44:50.083Z,45.08
2023-03-05T16:47:52.994Z,41.83
2023-03-05T16:50:57.783Z,37.38
2023-03-05T16:54:00.032Z,38.63
2023-03-05T16:57:02.163Z,41.15
2023-03-05T17:00:05.029Z,39.67
2023-03-05T17:03:07.588Z,35.25
2023-03-05T17:06:15.712Z,39.03
2023-03-05T17:09:23.661Z,35.17
2023-03-05T17:12:25.914Z,35.03
2023-03-05T17:15:28.239Z,39.38
2023-03-05T17:18:31.136Z,36.60
2023-03-05T17:21:33.386Z,35.60
2023-03-05T17:24:35.604Z,34.70
2023-03-05T17:27:37.775Z,36.47
2023-03-05T17:30:40.410Z,38.72
2023-03-05T17:33:42.752Z,36.65
2023-03-05T17:36:45.623Z,35.10
2023-03-05T17:39:48.202Z,33.58
2023-03-05T17:42:50.905Z,33.38
2023-03-05T17:45:53.101Z,38.95
2023-03-05T17:48:55.535Z,36.28
2023-03-05T17:51:57.773Z,37.90
2023-03-05T17:55:00.293Z,35.80
2023-03-05T17:58:02.426Z,38.38
2023-03-05T18:01:05.828Z,35.40
2023-03-05T18:04:08.118Z,39.65
2023-03-05T18:07:10.765Z,39.38
2023-03-05T18:10:15.381Z,32.50
2023-03-05T18:13:17.828Z,35.35
2023-03-05T18:16:20.577Z,36.60
2023-03-05T18:19:22.953Z,37.95
2023-03-05T18:22:25.096Z,38.22
2023-03-05T18:25:31.327Z,36.78
2023-03-05T18:28:33.728Z,32.78
2023-03-05T18:31:35.980Z,36.00
2023-03-05T18:34:38.271Z,36.50
2023-03-05T18:37:40.424Z,36.95
2023-03-05T18:40:43.861Z,34.40
2023-03-05T18:43:46.111Z,36.50
2023-03-05T18:46:48.250Z,33.05
2023-03-05T18:49:50.806Z,36.75
2023-03-05T18:52:53.893Z,32.97
2023-03-05T18:55:56.085Z,37.95
2023-03-05T18:58:59.073Z,34.05
2023-03-05T19:02:01.376Z,35.85
2023-03-05T19:05:03.630Z,34.88
2023-03-05T19:08:07.769Z,33.45
2023-03-05T19:11:19.244Z,35.60
2023-03-05T19:14:21.397Z,35.78
2023-03-05T19:17:23.510Z,36.95
2023-03-05T19:20:25.637Z,34.47
2023-03-05T19:23:27.901Z,34.85
2023-03-05T19:26:30.357Z,37.38
2023-03-05T19:29:33.116Z,34.55
2023-03-05T19:32:35.668Z,32.67
2023-03-05T19:35:37.865Z,38.67
2023-03-05T19:38:40.229Z,35.95
2023-03-05T19:41:42.553Z,35.42
2023-03-05T19:44:44.646Z,37.38
2023-03-05T19:47:46.825Z,35.67
2023-03-05T19:50:49.078Z,33.20
2023-03-05T19:53:51.643Z,30.42
2023-03-05T19:56:55.724Z,32.95
2023-03-05T19:59:57.986Z,35.28
2023-03-05T20:03:00.244Z,31.27
2023-03-05T20:06:02.579Z,36.80
2023-03-05T20:09:06.915Z,36.05
2023-03-05T20:12:10.532Z,36.20
2023-03-05T20:15:12.764Z,32.90
2023-03-05T20:18:14.968Z,37.55
2023-03-05T20:21:21.578Z,35.05
2023-03-05T20:24:23.751Z,34.63
2023-03-05T20:27:25.998Z,35.13
2023-03-05T20:30:28.133Z,33.83
2023-03-05T20:33:30.293Z,39.88
2023-03-05T20:36:34.737Z,37.65
2023-03-05T20:39:36.922Z,33.35
2023-03-05T20:42:39.090Z,37.42
2023-03-05T20:45:41.476Z,33.92
2023-03-05T20:48:43.816Z,32.10
2023-03-05T20:51:49.648Z,33.10
2023-03-05T20:54:51.790Z,29.42
2023-03-05T20:57:54.256Z,34.60
2023-03-05T21:00:56.400Z,36.42
2023-03-05T21:03:59.130Z,31.70
2023-03-05T21:07:01.373Z,34.38
2023-03-05T21:10:03.985Z,29.90
2023-03-05T21:13:06.185Z,33.50
2023-03-05T21:16:11.113Z,30.98
2023-03-05T21:19:13.382Z,34.05
2023-03-05T21:22:15.554Z,36.67
2023-03-05T21:25:22.326Z,33.17
2023-03-05T21:28:24.596Z,40.42
2023-03-05T21:31:26.749Z,33.58
2023-03-05T21:34:28.906Z,39.78
2023-03-05T21:37:31.120Z,39.38
2023-03-05T21:40:34.710Z,35.92
2023-03-05T21:43:36.918Z,35.83
2023-03-05T21:46:40.315Z,37.47
2023-03-05T21:49:42.419Z,35.80
2023-03-05T21:52:44.700Z,40.60
2023-03-05T21:56:31.131Z,40.83
2023-03-05T21:59:33.416Z,37.40
2023-03-05T22:02:36.779Z,40.65
2023-03-05T22:05:41.823Z,35.00
2023-03-05T22:08:44.176Z,35.97
2023-03-05T22:11:46.329Z,33.53
2023-03-05T22:14:48.545Z,38.30
2023-03-05T22:17:50.706Z,40.85
2023-03-05T22:20:53.804Z,39.47
2023-03-05T22:23:59.514Z,39.63
2023-03-05T22:27:02.102Z,34.78
2023-03-05T22:30:05.642Z,34.17
2023-03-05T22:33:07.922Z,42.83
2023-03-05T22:36:13.677Z,38.13
2023-03-05T22:39:15.828Z,39.20
2023-03-05T22:42:17.916Z,33.22
2023-03-05T22:45:20.149Z,37.25
2023-03-05T22:48:22.304Z,33.28
2023-03-05T22:51:24.847Z,39.00
2023-03-05T22:54:26.948Z,39.88
2023-03-05T22:57:29.987Z,34.60
2023-03-05T23:00:32.129Z,32.50
2023-03-05T23:03:34.331Z,28.17
2023-03-05T23:06:36.571Z,32.00
2023-03-05T23:09:38.713Z,35.65
2023-03-05T23:12:46.148Z,32.72
2023-03-05T23:15:48.482Z,31.40
2023-03-05T23:18:50.676Z,35.75
2023-03-05T23:21:52.857Z,28.25
2023-03-05T23:24:54.933Z,34.65
2023-03-05T23:28:00.849Z,31.05
2023-03-05T23:31:04.056Z,29.65
2023-03-05T23:34:06.298Z,28.48
2023-03-05T23:37:08.516Z,32.42
2023-03-05T23:40:15.694Z,30.75
2023-03-05T23:43:19.098Z,34.30
2023-03-05T23:46:21.305Z,34.88
2023-03-05T23:49:23.467Z,34.95
2023-03-05T23:52:25.854Z,29.88
2023-03-05T23:55:34.465Z,30.55
2023-03-05T23:58:37.567Z,37.67
